Minot, ND (58701)

10:07 AM CST on February 07, 2016 (GMT -0600)
Edgeview Estates | | Change Station
CLOSE
Current Station
Personal Weather Station
Location: Minot, ND
Elevation: 1752 ft
Nearby Weather Stations
Active Advisory: High Wind Warning Active Notice: Public Information Statement

Elev 1752 ft 48.21 °N, 101.33 °W | Updated 5 seconds ago

Light Snow
Light Snow
25.7 °F
Feels Like 7 °F
N
40.0
Wind Variable Wind from WNW
Gusts 43.0 mph

Today
High -- | Low -- °F
--% Chance of Precip.
Yesterday
High -- | Low -- °F
Precip. -- in
Pressure 29.91 in
Visibility 9.0 miles
Clouds Few 2300 ft
Scattered Clouds 2800 ft
Overcast 3500 ft
Windchill 7 °F
Dew Point 17 °F
Humidity 69%
Rainfall 0.00 in
Snow Depth Not available.
8:05 AM 5:53 PM
Waning Crescent, 1% visible
METAR KMOT 071554Z AUTO 30025G37KT 9SM -SN FEW023 SCT028 OVC035 M02/M09 A2986 RMK AO2 PK WND 31049/1508 SLP128 P0000 T10171089
Pressure 29.91 in
Visibility 9.0 miles
Clouds Few 2300 ft
Scattered Clouds 2800 ft
Overcast 3500 ft
Windchill 7 °F
Dew Point 17 °F
Humidity 69%
Rainfall 0.00 in
Snow Depth Not available.
8:05 AM 5:53 PM
Waning Crescent, 1% visible
METAR KMOT 071554Z AUTO 30025G37KT 9SM -SN FEW023 SCT028 OVC035 M02/M09 A2986 RMK AO2 PK WND 31049/1508 SLP128 P0000 T10171089

10-Day Weather Forecast

Almanac

Astronomy

Feb. 07, 2016 Rise Set
Actual Time
Civil Twilight
Nautical Twilight
Astronomical Twilight
Moon
Length of Visible Light
Length of Day
Tomorrow will be .
, % of the Moon is Illuminated

Today's Extremes

State Highs State Lows

Community

WunderPhotos

Upload Photos

1,891,218 photos uploaded!

WunderBlog® & News

Nearby

Air Quality

  Air Quality AQ Index Pollutant
Not available.

Snow Depth

Station Depth Elevation

Earthquake Activity

City Distance Mag. Time & Date
Minimum magnitude displayed is 2.5.

Coastal Water Temperatures

Place Temperature

Stations

Nearby Weather Stations

Station Location Temp. Windchill Dew Point Humidity Wind Precip. Elev Updated Type
                   

Watches & Warnings

High Wind Warning
Issued: 9:05 AM MST Feb. 7, 2016 – National Weather Service

... High Wind Warning remains in effect until 6 am CST /5 am MST/
Monday...

* timing... through tonight.

* Winds... northwest winds gusting up to 65 mph.

* Impacts... travel will be hazardous over western and central
North Dakota. Snow and blowing snow may reduce
visibilities... particularly through late this afternoon.

Precautionary/preparedness actions...

A High Wind Warning means a hazardous high wind event is expected
or occurring. Sustained wind speeds of at least 40 mph or gusts
of 58 mph or more can lead to property damage.



Jjs